sensor_id;sensor_type;location;lat;lon;timestamp;P1;durP1;ratioP1;P2;durP2;ratioP2
45356;SDS011;31092;51.924;21.448;2022-09-09T00:01:04;7.22;;;2.78;;
45356;SDS011;31092;51.924;21.448;2022-09-09T00:03:47;9.48;;;2.58;;
45356;SDS011;31092;51.924;21.448;2022-09-09T00:11:36;4.88;;;2.42;;
45356;SDS011;31092;51.924;21.448;2022-09-09T00:14:10;4.88;;;2.38;;
45356;SDS011;31092;51.924;21.448;2022-09-09T00:16:44;9.52;;;2.70;;
45356;SDS011;31092;51.924;21.448;2022-09-09T00:19:23;3.67;;;2.67;;
45356;SDS011;31092;51.924;21.448;2022-09-09T00:22:12;4.90;;;2.72;;
45356;SDS011;31092;51.924;21.448;2022-09-09T00:24:43;4.07;;;2.15;;
45356;SDS011;31092;51.924;21.448;2022-09-09T00:27:13;4.00;;;2.63;;
45356;SDS011;31092;51.924;21.448;2022-09-09T00:29:45;6.47;;;2.67;;
45356;SDS011;31092;51.924;21.448;2022-09-09T00:32:19;5.82;;;2.90;;
45356;SDS011;31092;51.924;21.448;2022-09-09T00:35:13;5.03;;;2.53;;
45356;SDS011;31092;51.924;21.448;2022-09-09T00:37:43;5.43;;;2.67;;
45356;SDS011;31092;51.924;21.448;2022-09-09T00:40:33;4.53;;;3.08;;
45356;SDS011;31092;51.924;21.448;2022-09-09T00:45:57;4.97;;;3.15;;
45356;SDS011;31092;51.924;21.448;2022-09-09T00:56:46;5.70;;;3.30;;
45356;SDS011;31092;51.924;21.448;2022-09-09T00:59:28;5.82;;;3.88;;
45356;SDS011;31092;51.924;21.448;2022-09-09T01:02:30;10.90;;;3.55;;
45356;SDS011;31092;51.924;21.448;2022-09-09T01:05:10;5.72;;;3.10;;
45356;SDS011;31092;51.924;21.448;2022-09-09T01:07:42;5.70;;;3.47;;
45356;SDS011;31092;51.924;21.448;2022-09-09T01:13:17;5.95;;;2.75;;
45356;SDS011;31092;51.924;21.448;2022-09-09T01:15:48;5.18;;;3.10;;
45356;SDS011;31092;51.924;21.448;2022-09-09T01:18:19;5.63;;;3.05;;
45356;SDS011;31092;51.924;21.448;2022-09-09T01:26:13;4.00;;;2.83;;
45356;SDS011;31092;51.924;21.448;2022-09-09T01:28:46;5.43;;;3.13;;
45356;SDS011;31092;51.924;21.448;2022-09-09T01:31:17;7.07;;;3.05;;
45356;SDS011;31092;51.924;21.448;2022-09-09T01:33:46;2.63;;;2.42;;
45356;SDS011;31092;51.924;21.448;2022-09-09T01:36:24;7.25;;;3.55;;
45356;SDS011;31092;51.924;21.448;2022-09-09T01:38:56;5.65;;;3.28;;
45356;SDS011;31092;51.924;21.448;2022-09-09T01:41:22;6.68;;;3.28;;
45356;SDS011;31092;51.924;21.448;2022-09-09T01:43:48;6.85;;;3.40;;
45356;SDS011;31092;51.924;21.448;2022-09-09T01:46:14;3.97;;;2.92;;
45356;SDS011;31092;51.924;21.448;2022-09-09T01:48:40;4.30;;;2.78;;
45356;SDS011;31092;51.924;21.448;2022-09-09T01:51:08;13.20;;;3.78;;
45356;SDS011;31092;51.924;21.448;2022-09-09T01:53:35;6.18;;;2.97;;
45356;SDS011;31092;51.924;21.448;2022-09-09T02:03:35;6.13;;;3.15;;
45356;SDS011;31092;51.924;21.448;2022-09-09T02:06:15;7.47;;;3.67;;
45356;SDS011;31092;51.924;21.448;2022-09-09T02:08:53;5.15;;;3.08;;
45356;SDS011;31092;51.924;21.448;2022-09-09T02:11:22;4.25;;;2.70;;
45356;SDS011;31092;51.924;21.448;2022-09-09T02:13:54;7.95;;;3.80;;
45356;SDS011;31092;51.924;21.448;2022-09-09T02:16:25;7.07;;;3.30;;
45356;SDS011;31092;51.924;21.448;2022-09-09T02:19:09;4.20;;;2.85;;
45356;SDS011;31092;51.924;21.448;2022-09-09T02:21:41;6.35;;;3.55;;
45356;SDS011;31092;51.924;21.448;2022-09-09T02:24:10;6.93;;;3.33;;
45356;SDS011;31092;51.924;21.448;2022-09-09T02:26:40;5.65;;;3.22;;
45356;SDS011;31092;51.924;21.448;2022-09-09T02:29:08;7.50;;;3.88;;
45356;SDS011;31092;51.924;21.448;2022-09-09T02:31:38;4.72;;;3.00;;
45356;SDS011;31092;51.924;21.448;2022-09-09T02:34:06;3.72;;;2.80;;
45356;SDS011;31092;51.924;21.448;2022-09-09T02:36:36;6.32;;;3.83;;
45356;SDS011;31092;51.924;21.448;2022-09-09T02:39:04;5.30;;;3.08;;
45356;SDS011;31092;51.924;21.448;2022-09-09T02:41:33;7.22;;;3.15;;
45356;SDS011;31092;51.924;21.448;2022-09-09T02:44:00;7.22;;;3.42;;
45356;SDS011;31092;51.924;21.448;2022-09-09T02:48:58;6.90;;;3.65;;
45356;SDS011;31092;51.924;21.448;2022-09-09T02:56:45;7.80;;;3.55;;
45356;SDS011;31092;51.924;21.448;2022-09-09T02:59:16;9.73;;;3.55;;
45356;SDS011;31092;51.924;21.448;2022-09-09T03:01:43;7.13;;;3.28;;
45356;SDS011;31092;51.924;21.448;2022-09-09T03:04:09;3.85;;;2.75;;
45356;SDS011;31092;51.924;21.448;2022-09-09T03:06:34;4.75;;;2.90;;
45356;SDS011;31092;51.924;21.448;2022-09-09T03:09:00;4.57;;;3.22;;
45356;SDS011;31092;51.924;21.448;2022-09-09T03:11:27;5.88;;;3.08;;
45356;SDS011;31092;51.924;21.448;2022-09-09T03:13:53;6.07;;;3.55;;
45356;SDS011;31092;51.924;21.448;2022-09-09T03:16:21;7.68;;;2.97;;
45356;SDS011;31092;51.924;21.448;2022-09-09T03:18:47;4.03;;;2.78;;
45356;SDS011;31092;51.924;21.448;2022-09-09T03:21:12;4.28;;;2.42;;
45356;SDS011;31092;51.924;21.448;2022-09-09T03:23:38;4.10;;;2.85;;
45356;SDS011;31092;51.924;21.448;2022-09-09T03:26:04;4.20;;;2.65;;
45356;SDS011;31092;51.924;21.448;2022-09-09T03:28:29;3.05;;;2.50;;
45356;SDS011;31092;51.924;21.448;2022-09-09T03:31:03;6.90;;;3.33;;
45356;SDS011;31092;51.924;21.448;2022-09-09T03:33:29;7.93;;;3.42;;
45356;SDS011;31092;51.924;21.448;2022-09-09T03:35:56;4.32;;;2.70;;
45356;SDS011;31092;51.924;21.448;2022-09-09T03:38:24;4.80;;;3.13;;
45356;SDS011;31092;51.924;21.448;2022-09-09T03:40:51;4.30;;;2.65;;
45356;SDS011;31092;51.924;21.448;2022-09-09T03:43:20;3.05;;;2.28;;
45356;SDS011;31092;51.924;21.448;2022-09-09T03:45:46;5.03;;;2.67;;
45356;SDS011;31092;51.924;21.448;2022-09-09T03:48:13;3.22;;;2.33;;
45356;SDS011;31092;51.924;21.448;2022-09-09T03:50:43;4.20;;;2.22;;
45356;SDS011;31092;51.924;21.448;2022-09-09T03:53:10;5.80;;;2.40;;
45356;SDS011;31092;51.924;21.448;2022-09-09T03:55:35;5.22;;;2.78;;
45356;SDS011;31092;51.924;21.448;2022-09-09T03:58:01;2.95;;;2.33;;
45356;SDS011;31092;51.924;21.448;2022-09-09T04:00:26;3.03;;;2.42;;
45356;SDS011;31092;51.924;21.448;2022-09-09T04:02:52;2.08;;;1.88;;
45356;SDS011;31092;51.924;21.448;2022-09-09T04:05:19;3.75;;;2.35;;
45356;SDS011;31092;51.924;21.448;2022-09-09T04:07:45;1.83;;;1.73;;
45356;SDS011;31092;51.924;21.448;2022-09-09T04:10:10;3.83;;;2.50;;
45356;SDS011;31092;51.924;21.448;2022-09-09T04:12:36;2.78;;;2.10;;
45356;SDS011;31092;51.924;21.448;2022-09-09T04:15:01;4.22;;;2.72;;
45356;SDS011;31092;51.924;21.448;2022-09-09T04:17:27;3.50;;;2.42;;
45356;SDS011;31092;51.924;21.448;2022-09-09T04:19:53;2.42;;;2.20;;
45356;SDS011;31092;51.924;21.448;2022-09-09T04:22:18;2.78;;;1.98;;
45356;SDS011;31092;51.924;21.448;2022-09-09T04:24:44;3.67;;;2.70;;
45356;SDS011;31092;51.924;21.448;2022-09-09T04:27:09;6.30;;;3.88;;
45356;SDS011;31092;51.924;21.448;2022-09-09T04:29:35;3.38;;;2.25;;
45356;SDS011;31092;51.924;21.448;2022-09-09T04:32:00;2.95;;;2.17;;
45356;SDS011;31092;51.924;21.448;2022-09-09T04:34:26;3.78;;;2.78;;
45356;SDS011;31092;51.924;21.448;2022-09-09T04:36:51;4.38;;;2.50;;
45356;SDS011;31092;51.924;21.448;2022-09-09T04:39:17;3.40;;;2.17;;
45356;SDS011;31092;51.924;21.448;2022-09-09T04:41:42;3.33;;;2.53;;
45356;SDS011;31092;51.924;21.448;2022-09-09T04:44:08;4.07;;;2.63;;
45356;SDS011;31092;51.924;21.448;2022-09-09T04:46:35;4.25;;;2.47;;
45356;SDS011;31092;51.924;21.448;2022-09-09T04:49:00;2.65;;;2.42;;
45356;SDS011;31092;51.924;21.448;2022-09-09T04:51:26;3.28;;;2.65;;
45356;SDS011;31092;51.924;21.448;2022-09-09T04:53:51;7.20;;;2.92;;
45356;SDS011;31092;51.924;21.448;2022-09-09T04:56:19;5.28;;;3.20;;
45356;SDS011;31092;51.924;21.448;2022-09-09T04:58:45;4.28;;;2.33;;
45356;SDS011;31092;51.924;21.448;2022-09-09T05:03:37;4.85;;;3.30;;
45356;SDS011;31092;51.924;21.448;2022-09-09T05:06:21;4.93;;;2.92;;
45356;SDS011;31092;51.924;21.448;2022-09-09T05:08:47;6.60;;;2.47;;
45356;SDS011;31092;51.924;21.448;2022-09-09T05:11:15;9.27;;;3.38;;
45356;SDS011;31092;51.924;21.448;2022-09-09T05:13:51;4.28;;;3.42;;
45356;SDS011;31092;51.924;21.448;2022-09-09T05:16:17;6.25;;;2.88;;
45356;SDS011;31092;51.924;21.448;2022-09-09T05:18:44;8.35;;;4.32;;
45356;SDS011;31092;51.924;21.448;2022-09-09T05:21:11;6.68;;;3.50;;
45356;SDS011;31092;51.924;21.448;2022-09-09T05:23:38;7.55;;;3.60;;
45356;SDS011;31092;51.924;21.448;2022-09-09T05:26:05;3.92;;;3.05;;
45356;SDS011;31092;51.924;21.448;2022-09-09T05:28:33;3.75;;;2.80;;
45356;SDS011;31092;51.924;21.448;2022-09-09T05:31:01;3.58;;;2.72;;
45356;SDS011;31092;51.924;21.448;2022-09-09T05:33:33;3.60;;;3.22;;
45356;SDS011;31092;51.924;21.448;2022-09-09T05:36:04;6.30;;;3.70;;
45356;SDS011;31092;51.924;21.448;2022-09-09T05:38:33;3.67;;;2.92;;
45356;SDS011;31092;51.924;21.448;2022-09-09T05:40:59;4.95;;;2.92;;
45356;SDS011;31092;51.924;21.448;2022-09-09T05:43:26;3.33;;;2.95;;
45356;SDS011;31092;51.924;21.448;2022-09-09T05:46:02;5.18;;;2.95;;
45356;SDS011;31092;51.924;21.448;2022-09-09T05:48:29;4.95;;;2.40;;
45356;SDS011;31092;51.924;21.448;2022-09-09T05:50:56;5.47;;;3.15;;
45356;SDS011;31092;51.924;21.448;2022-09-09T05:53:21;2.95;;;2.55;;
45356;SDS011;31092;51.924;21.448;2022-09-09T05:55:47;5.35;;;2.92;;
45356;SDS011;31092;51.924;21.448;2022-09-09T05:58:13;5.32;;;3.55;;
45356;SDS011;31092;51.924;21.448;2022-09-09T06:00:40;3.92;;;2.92;;
45356;SDS011;31092;51.924;21.448;2022-09-09T06:03:06;4.85;;;3.13;;
45356;SDS011;31092;51.924;21.448;2022-09-09T06:05:31;4.43;;;2.97;;
45356;SDS011;31092;51.924;21.448;2022-09-09T06:07:57;4.90;;;2.97;;
45356;SDS011;31092;51.924;21.448;2022-09-09T06:10:23;5.63;;;3.47;;
45356;SDS011;31092;51.924;21.448;2022-09-09T06:12:48;7.18;;;3.60;;
45356;SDS011;31092;51.924;21.448;2022-09-09T06:15:17;3.63;;;2.83;;
45356;SDS011;31092;51.924;21.448;2022-09-09T06:17:42;6.07;;;3.53;;
45356;SDS011;31092;51.924;21.448;2022-09-09T06:20:10;4.00;;;2.40;;
45356;SDS011;31092;51.924;21.448;2022-09-09T06:22:38;6.05;;;3.60;;
45356;SDS011;31092;51.924;21.448;2022-09-09T06:25:05;4.68;;;3.03;;
45356;SDS011;31092;51.924;21.448;2022-09-09T06:27:32;5.95;;;3.20;;
45356;SDS011;31092;51.924;21.448;2022-09-09T06:29:58;4.82;;;3.15;;
45356;SDS011;31092;51.924;21.448;2022-09-09T06:32:24;8.30;;;2.92;;
45356;SDS011;31092;51.924;21.448;2022-09-09T06:34:50;3.35;;;2.83;;
45356;SDS011;31092;51.924;21.448;2022-09-09T06:37:15;6.78;;;2.70;;
45356;SDS011;31092;51.924;21.448;2022-09-09T06:39:41;4.25;;;2.72;;
45356;SDS011;31092;51.924;21.448;2022-09-09T06:42:06;2.83;;;2.63;;
45356;SDS011;31092;51.924;21.448;2022-09-09T06:44:33;4.10;;;2.53;;
45356;SDS011;31092;51.924;21.448;2022-09-09T06:46:59;4.38;;;3.35;;
45356;SDS011;31092;51.924;21.448;2022-09-09T06:49:24;4.15;;;2.90;;
45356;SDS011;31092;51.924;21.448;2022-09-09T06:51:50;2.45;;;2.25;;
45356;SDS011;31092;51.924;21.448;2022-09-09T06:54:17;4.70;;;3.05;;
45356;SDS011;31092;51.924;21.448;2022-09-09T06:56:43;2.78;;;2.53;;
45356;SDS011;31092;51.924;21.448;2022-09-09T06:59:10;3.53;;;2.13;;
45356;SDS011;31092;51.924;21.448;2022-09-09T07:01:41;5.30;;;2.72;;
45356;SDS011;31092;51.924;21.448;2022-09-09T07:04:11;6.00;;;3.10;;
45356;SDS011;31092;51.924;21.448;2022-09-09T07:06:42;4.20;;;2.55;;
45356;SDS011;31092;51.924;21.448;2022-09-09T07:09:10;4.43;;;3.35;;
45356;SDS011;31092;51.924;21.448;2022-09-09T07:11:38;5.75;;;3.25;;
45356;SDS011;31092;51.924;21.448;2022-09-09T07:14:06;5.65;;;3.30;;
45356;SDS011;31092;51.924;21.448;2022-09-09T07:16:32;4.05;;;2.63;;
45356;SDS011;31092;51.924;21.448;2022-09-09T07:19:02;3.88;;;2.40;;
45356;SDS011;31092;51.924;21.448;2022-09-09T07:21:29;5.60;;;3.53;;
45356;SDS011;31092;51.924;21.448;2022-09-09T07:23:56;3.80;;;2.70;;
45356;SDS011;31092;51.924;21.448;2022-09-09T07:26:23;5.75;;;2.72;;
45356;SDS011;31092;51.924;21.448;2022-09-09T07:28:50;3.88;;;3.45;;
45356;SDS011;31092;51.924;21.448;2022-09-09T07:31:20;5.00;;;3.30;;
45356;SDS011;31092;51.924;21.448;2022-09-09T07:33:48;7.53;;;2.17;;
45356;SDS011;31092;51.924;21.448;2022-09-09T07:36:14;4.35;;;3.35;;
45356;SDS011;31092;51.924;21.448;2022-09-09T07:38:45;4.88;;;2.88;;
45356;SDS011;31092;51.924;21.448;2022-09-09T07:41:14;4.78;;;2.80;;
45356;SDS011;31092;51.924;21.448;2022-09-09T07:43:42;6.93;;;2.83;;
45356;SDS011;31092;51.924;21.448;2022-09-09T07:46:10;6.63;;;3.28;;
45356;SDS011;31092;51.924;21.448;2022-09-09T07:48:37;3.88;;;2.63;;
45356;SDS011;31092;51.924;21.448;2022-09-09T07:51:11;5.28;;;3.67;;
45356;SDS011;31092;51.924;21.448;2022-09-09T07:53:40;4.78;;;2.90;;
45356;SDS011;31092;51.924;21.448;2022-09-09T07:56:09;6.38;;;3.35;;
45356;SDS011;31092;51.924;21.448;2022-09-09T07:58:38;3.08;;;2.72;;
45356;SDS011;31092;51.924;21.448;2022-09-09T08:01:08;6.75;;;3.22;;
45356;SDS011;31092;51.924;21.448;2022-09-09T08:06:01;5.32;;;3.30;;
45356;SDS011;31092;51.924;21.448;2022-09-09T08:08:28;7.40;;;3.40;;
45356;SDS011;31092;51.924;21.448;2022-09-09T08:11:00;4.72;;;3.65;;
45356;SDS011;31092;51.924;21.448;2022-09-09T08:13:27;7.57;;;3.95;;
45356;SDS011;31092;51.924;21.448;2022-09-09T08:15:53;5.63;;;3.63;;
45356;SDS011;31092;51.924;21.448;2022-09-09T08:18:18;3.53;;;2.88;;
45356;SDS011;31092;51.924;21.448;2022-09-09T08:20:44;3.65;;;2.90;;
45356;SDS011;31092;51.924;21.448;2022-09-09T08:23:10;3.78;;;2.95;;
45356;SDS011;31092;51.924;21.448;2022-09-09T08:25:35;4.75;;;3.20;;
45356;SDS011;31092;51.924;21.448;2022-09-09T08:33:33;6.07;;;3.50;;
45356;SDS011;31092;51.924;21.448;2022-09-09T08:35:59;3.88;;;3.45;;
45356;SDS011;31092;51.924;21.448;2022-09-09T08:38:34;6.93;;;4.57;;
45356;SDS011;31092;51.924;21.448;2022-09-09T08:47:50;5.95;;;3.33;;
45356;SDS011;31092;51.924;21.448;2022-09-09T08:50:50;5.15;;;3.20;;
45356;SDS011;31092;51.924;21.448;2022-09-09T08:53:38;11.18;;;4.22;;
45356;SDS011;31092;51.924;21.448;2022-09-09T08:56:13;4.55;;;3.83;;
45356;SDS011;31092;51.924;21.448;2022-09-09T08:58:48;5.83;;;4.27;;
45356;SDS011;31092;51.924;21.448;2022-09-09T09:01:35;6.78;;;4.13;;
45356;SDS011;31092;51.924;21.448;2022-09-09T09:16:25;7.70;;;4.53;;
45356;SDS011;31092;51.924;21.448;2022-09-09T09:19:08;12.07;;;5.40;;
45356;SDS011;31092;51.924;21.448;2022-09-09T09:21:49;15.27;;;5.32;;
45356;SDS011;31092;51.924;21.448;2022-09-09T09:24:18;9.38;;;5.68;;
45356;SDS011;31092;51.924;21.448;2022-09-09T09:26:45;9.70;;;5.50;;
45356;SDS011;31092;51.924;21.448;2022-09-09T09:29:21;7.22;;;4.47;;
45356;SDS011;31092;51.924;21.448;2022-09-09T09:34:51;10.55;;;5.07;;
45356;SDS011;31092;51.924;21.448;2022-09-09T09:37:35;7.43;;;4.97;;
45356;SDS011;31092;51.924;21.448;2022-09-09T09:46:28;8.15;;;4.85;;
45356;SDS011;31092;51.924;21.448;2022-09-09T09:48:57;8.90;;;5.07;;
45356;SDS011;31092;51.924;21.448;2022-09-09T09:51:26;15.80;;;6.28;;
45356;SDS011;31092;51.924;21.448;2022-09-09T09:53:53;13.10;;;5.97;;
45356;SDS011;31092;51.924;21.448;2022-09-09T09:57:36;9.52;;;5.00;;
45356;SDS011;31092;51.924;21.448;2022-09-09T09:59:41;7.55;;;4.95;;
45356;SDS011;31092;51.924;21.448;2022-09-09T10:02:21;11.85;;;6.28;;
45356;SDS011;31092;51.924;21.448;2022-09-09T10:08:08;12.57;;;6.10;;
45356;SDS011;31092;51.924;21.448;2022-09-09T10:36:22;10.40;;;5.35;;
45356;SDS011;31092;51.924;21.448;2022-09-09T10:52:36;15.25;;;5.20;;
45356;SDS011;31092;51.924;21.448;2022-09-09T11:12:31;8.18;;;4.05;;
45356;SDS011;31092;51.924;21.448;2022-09-09T11:18:03;8.45;;;4.63;;
45356;SDS011;31092;51.924;21.448;2022-09-09T11:20:32;9.55;;;5.63;;
45356;SDS011;31092;51.924;21.448;2022-09-09T11:25:44;14.85;;;4.90;;
45356;SDS011;31092;51.924;21.448;2022-09-09T11:31:54;7.60;;;4.25;;
45356;SDS011;31092;51.924;21.448;2022-09-09T11:40:38;13.35;;;5.55;;
45356;SDS011;31092;51.924;21.448;2022-09-09T11:43:12;9.80;;;5.10;;
45356;SDS011;31092;51.924;21.448;2022-09-09T11:45:49;10.07;;;5.47;;
45356;SDS011;31092;51.924;21.448;2022-09-09T11:48:32;10.35;;;5.07;;
45356;SDS011;31092;51.924;21.448;2022-09-09T11:53:28;13.38;;;5.82;;
45356;SDS011;31092;51.924;21.448;2022-09-09T11:59:30;9.75;;;4.70;;
45356;SDS011;31092;51.924;21.448;2022-09-09T12:02:02;7.05;;;4.57;;
45356;SDS011;31092;51.924;21.448;2022-09-09T12:04:54;11.13;;;4.78;;
45356;SDS011;31092;51.924;21.448;2022-09-09T12:07:28;10.60;;;4.82;;
45356;SDS011;31092;51.924;21.448;2022-09-09T12:09:58;7.38;;;4.68;;
45356;SDS011;31092;51.924;21.448;2022-09-09T12:12:45;14.27;;;5.97;;
45356;SDS011;31092;51.924;21.448;2022-09-09T12:27:13;11.35;;;6.18;;
45356;SDS011;31092;51.924;21.448;2022-09-09T12:30:18;10.10;;;4.78;;
45356;SDS011;31092;51.924;21.448;2022-09-09T12:33:06;11.48;;;5.57;;
45356;SDS011;31092;51.924;21.448;2022-09-09T12:42:19;8.07;;;4.70;;
45356;SDS011;31092;51.924;21.448;2022-09-09T12:44:59;14.45;;;6.90;;
45356;SDS011;31092;51.924;21.448;2022-09-09T12:47:38;18.67;;;6.82;;
45356;SDS011;31092;51.924;21.448;2022-09-09T12:50:15;11.88;;;5.45;;
45356;SDS011;31092;51.924;21.448;2022-09-09T12:52:44;15.80;;;5.90;;
45356;SDS011;31092;51.924;21.448;2022-09-09T12:55:15;18.58;;;5.93;;
45356;SDS011;31092;51.924;21.448;2022-09-09T12:58:19;10.85;;;5.88;;
45356;SDS011;31092;51.924;21.448;2022-09-09T13:00:49;11.40;;;5.88;;
45356;SDS011;31092;51.924;21.448;2022-09-09T13:03:21;15.23;;;6.38;;
45356;SDS011;31092;51.924;21.448;2022-09-09T13:05:48;19.35;;;7.45;;
45356;SDS011;31092;51.924;21.448;2022-09-09T13:08:14;15.13;;;6.03;;
45356;SDS011;31092;51.924;21.448;2022-09-09T13:10:53;24.85;;;7.97;;
45356;SDS011;31092;51.924;21.448;2022-09-09T13:13:35;10.40;;;5.65;;
45356;SDS011;31092;51.924;21.448;2022-09-09T13:16:07;13.05;;;5.95;;
45356;SDS011;31092;51.924;21.448;2022-09-09T13:18:49;15.95;;;6.40;;
45356;SDS011;31092;51.924;21.448;2022-09-09T13:21:16;18.05;;;6.85;;
45356;SDS011;31092;51.924;21.448;2022-09-09T13:23:42;12.63;;;6.25;;
45356;SDS011;31092;51.924;21.448;2022-09-09T13:26:26;11.52;;;6.20;;
45356;SDS011;31092;51.924;21.448;2022-09-09T13:28:55;12.20;;;6.15;;
45356;SDS011;31092;51.924;21.448;2022-09-09T13:31:33;12.98;;;6.35;;
45356;SDS011;31092;51.924;21.448;2022-09-09T13:34:10;13.40;;;5.22;;
45356;SDS011;31092;51.924;21.448;2022-09-09T13:39:19;12.88;;;6.55;;
45356;SDS011;31092;51.924;21.448;2022-09-09T13:41:45;11.48;;;6.43;;
45356;SDS011;31092;51.924;21.448;2022-09-09T13:44:23;15.30;;;6.50;;
45356;SDS011;31092;51.924;21.448;2022-09-09T13:47:01;11.90;;;6.88;;
45356;SDS011;31092;51.924;21.448;2022-09-09T13:49:28;11.43;;;6.18;;
45356;SDS011;31092;51.924;21.448;2022-09-09T13:54:52;14.98;;;6.70;;
45356;SDS011;31092;51.924;21.448;2022-09-09T13:57:25;11.75;;;6.50;;
45356;SDS011;31092;51.924;21.448;2022-09-09T13:59:51;13.73;;;7.20;;
45356;SDS011;31092;51.924;21.448;2022-09-09T14:02:22;19.38;;;7.50;;
45356;SDS011;31092;51.924;21.448;2022-09-09T14:04:49;14.27;;;5.70;;
45356;SDS011;31092;51.924;21.448;2022-09-09T14:07:16;14.70;;;5.78;;
45356;SDS011;31092;51.924;21.448;2022-09-09T14:09:43;14.43;;;6.72;;
45356;SDS011;31092;51.924;21.448;2022-09-09T14:12:13;15.98;;;5.95;;
45356;SDS011;31092;51.924;21.448;2022-09-09T14:14:40;18.08;;;6.32;;
45356;SDS011;31092;51.924;21.448;2022-09-09T14:17:10;12.95;;;6.72;;
45356;SDS011;31092;51.924;21.448;2022-09-09T14:19:35;15.88;;;7.05;;
45356;SDS011;31092;51.924;21.448;2022-09-09T14:22:02;21.33;;;7.65;;
45356;SDS011;31092;51.924;21.448;2022-09-09T14:24:28;19.52;;;8.00;;
45356;SDS011;31092;51.924;21.448;2022-09-09T14:26:54;12.52;;;6.65;;
45356;SDS011;31092;51.924;21.448;2022-09-09T14:29:20;17.15;;;6.93;;
45356;SDS011;31092;51.924;21.448;2022-09-09T14:31:45;10.90;;;5.60;;
45356;SDS011;31092;51.924;21.448;2022-09-09T14:34:11;14.80;;;6.53;;
45356;SDS011;31092;51.924;21.448;2022-09-09T14:36:38;14.73;;;6.70;;
45356;SDS011;31092;51.924;21.448;2022-09-09T14:39:04;14.93;;;5.85;;
45356;SDS011;31092;51.924;21.448;2022-09-09T14:41:29;15.82;;;7.22;;
45356;SDS011;31092;51.924;21.448;2022-09-09T14:43:56;10.52;;;5.70;;
45356;SDS011;31092;51.924;21.448;2022-09-09T14:46:22;14.75;;;7.28;;
45356;SDS011;31092;51.924;21.448;2022-09-09T14:48:48;11.25;;;6.05;;
45356;SDS011;31092;51.924;21.448;2022-09-09T14:51:15;13.85;;;7.65;;
45356;SDS011;31092;51.924;21.448;2022-09-09T14:53:44;12.95;;;7.78;;
45356;SDS011;31092;51.924;21.448;2022-09-09T14:56:15;11.15;;;6.53;;
45356;SDS011;31092;51.924;21.448;2022-09-09T14:58:42;10.95;;;5.47;;
45356;SDS011;31092;51.924;21.448;2022-09-09T15:01:09;14.35;;;6.03;;
45356;SDS011;31092;51.924;21.448;2022-09-09T15:03:37;8.75;;;5.70;;
45356;SDS011;31092;51.924;21.448;2022-09-09T15:06:04;16.63;;;6.28;;
45356;SDS011;31092;51.924;21.448;2022-09-09T15:08:34;15.73;;;6.57;;
45356;SDS011;31092;51.924;21.448;2022-09-09T15:11:01;16.52;;;6.45;;
45356;SDS011;31092;51.924;21.448;2022-09-09T15:13:27;14.23;;;7.88;;
45356;SDS011;31092;51.924;21.448;2022-09-09T15:15:53;12.35;;;6.22;;
45356;SDS011;31092;51.924;21.448;2022-09-09T15:18:19;13.20;;;7.30;;
45356;SDS011;31092;51.924;21.448;2022-09-09T15:20:46;12.32;;;5.82;;
45356;SDS011;31092;51.924;21.448;2022-09-09T15:23:12;7.13;;;5.20;;
45356;SDS011;31092;51.924;21.448;2022-09-09T15:25:39;15.25;;;7.35;;
45356;SDS011;31092;51.924;21.448;2022-09-09T15:28:15;12.52;;;6.50;;
45356;SDS011;31092;51.924;21.448;2022-09-09T15:30:41;14.52;;;5.57;;
45356;SDS011;31092;51.924;21.448;2022-09-09T15:33:09;14.07;;;6.53;;
45356;SDS011;31092;51.924;21.448;2022-09-09T15:35:35;12.60;;;7.97;;
45356;SDS011;31092;51.924;21.448;2022-09-09T15:38:02;13.93;;;6.43;;
45356;SDS011;31092;51.924;21.448;2022-09-09T15:40:30;17.75;;;7.35;;
45356;SDS011;31092;51.924;21.448;2022-09-09T15:42:59;14.75;;;7.65;;
45356;SDS011;31092;51.924;21.448;2022-09-09T15:45:25;13.95;;;7.00;;
45356;SDS011;31092;51.924;21.448;2022-09-09T15:47:51;16.85;;;6.75;;
45356;SDS011;31092;51.924;21.448;2022-09-09T15:50:17;12.63;;;7.20;;
45356;SDS011;31092;51.924;21.448;2022-09-09T15:52:43;12.05;;;6.82;;
45356;SDS011;31092;51.924;21.448;2022-09-09T15:55:09;13.20;;;6.68;;
45356;SDS011;31092;51.924;21.448;2022-09-09T15:57:35;11.65;;;6.75;;
45356;SDS011;31092;51.924;21.448;2022-09-09T16:00:05;13.75;;;6.32;;
45356;SDS011;31092;51.924;21.448;2022-09-09T16:02:31;14.17;;;7.57;;
45356;SDS011;31092;51.924;21.448;2022-09-09T16:04:58;11.55;;;6.03;;
45356;SDS011;31092;51.924;21.448;2022-09-09T16:07:23;12.38;;;6.20;;
45356;SDS011;31092;51.924;21.448;2022-09-09T16:09:49;15.85;;;6.47;;
45356;SDS011;31092;51.924;21.448;2022-09-09T16:12:17;10.55;;;6.05;;
45356;SDS011;31092;51.924;21.448;2022-09-09T16:14:44;10.80;;;6.15;;
45356;SDS011;31092;51.924;21.448;2022-09-09T16:17:10;23.25;;;6.82;;
45356;SDS011;31092;51.924;21.448;2022-09-09T16:19:36;10.55;;;5.53;;
45356;SDS011;31092;51.924;21.448;2022-09-09T16:22:03;8.93;;;4.82;;
45356;SDS011;31092;51.924;21.448;2022-09-09T16:24:31;13.40;;;6.28;;
45356;SDS011;31092;51.924;21.448;2022-09-09T16:26:57;15.02;;;5.68;;
45356;SDS011;31092;51.924;21.448;2022-09-09T16:29:23;16.70;;;6.32;;
45356;SDS011;31092;51.924;21.448;2022-09-09T16:31:52;10.75;;;5.88;;
45356;SDS011;31092;51.924;21.448;2022-09-09T16:34:19;12.68;;;6.50;;
45356;SDS011;31092;51.924;21.448;2022-09-09T16:36:45;10.63;;;5.93;;
45356;SDS011;31092;51.924;21.448;2022-09-09T16:39:13;12.13;;;5.82;;
45356;SDS011;31092;51.924;21.448;2022-09-09T16:41:45;12.43;;;5.25;;
45356;SDS011;31092;51.924;21.448;2022-09-09T16:44:13;13.88;;;6.18;;
45356;SDS011;31092;51.924;21.448;2022-09-09T16:46:41;8.82;;;5.43;;
45356;SDS011;31092;51.924;21.448;2022-09-09T16:49:12;11.55;;;6.68;;
45356;SDS011;31092;51.924;21.448;2022-09-09T16:51:48;13.25;;;6.03;;
45356;SDS011;31092;51.924;21.448;2022-09-09T16:54:19;8.27;;;5.75;;
45356;SDS011;31092;51.924;21.448;2022-09-09T16:56:46;15.20;;;6.65;;
45356;SDS011;31092;51.924;21.448;2022-09-09T16:59:13;12.65;;;5.72;;
45356;SDS011;31092;51.924;21.448;2022-09-09T17:01:41;9.52;;;4.95;;
45356;SDS011;31092;51.924;21.448;2022-09-09T17:04:14;9.02;;;5.38;;
45356;SDS011;31092;51.924;21.448;2022-09-09T17:06:49;13.38;;;6.20;;
45356;SDS011;31092;51.924;21.448;2022-09-09T17:09:18;16.63;;;7.38;;
45356;SDS011;31092;51.924;21.448;2022-09-09T17:11:48;11.48;;;5.53;;
45356;SDS011;31092;51.924;21.448;2022-09-09T17:14:17;12.52;;;5.55;;
45356;SDS011;31092;51.924;21.448;2022-09-09T17:19:38;12.90;;;5.63;;
45356;SDS011;31092;51.924;21.448;2022-09-09T17:25:21;11.82;;;5.43;;
45356;SDS011;31092;51.924;21.448;2022-09-09T17:31:45;9.35;;;5.78;;
45356;SDS011;31092;51.924;21.448;2022-09-09T17:34:11;8.70;;;5.13;;
45356;SDS011;31092;51.924;21.448;2022-09-09T17:36:37;9.77;;;4.95;;
45356;SDS011;31092;51.924;21.448;2022-09-09T17:39:05;12.43;;;5.93;;
45356;SDS011;31092;51.924;21.448;2022-09-09T17:41:33;11.57;;;6.32;;
45356;SDS011;31092;51.924;21.448;2022-09-09T17:44:01;10.32;;;5.15;;
45356;SDS011;31092;51.924;21.448;2022-09-09T17:47:11;18.27;;;6.13;;
45356;SDS011;31092;51.924;21.448;2022-09-09T17:51:50;6.25;;;4.43;;
45356;SDS011;31092;51.924;21.448;2022-09-09T17:54:17;11.70;;;5.35;;
45356;SDS011;31092;51.924;21.448;2022-09-09T17:56:45;15.05;;;7.18;;
45356;SDS011;31092;51.924;21.448;2022-09-09T17:59:17;14.20;;;6.82;;
45356;SDS011;31092;51.924;21.448;2022-09-09T18:01:47;9.82;;;6.13;;